Time;durP1;ratioP1;P1;durP2;ratioP2;P2;SDS_P1;SDS_P2;PMS_P1;PMS_P2;Temp;Humidity;BMP_temperature;BMP_pressure;BME280_temperature;BME280_humidity;BME280_pressure;Samples;Min_cycle;Max_cycle;Signal;HPM_P1;HPM_P2
2023/01/19 00:02:03;;;;;;;14.63;6.07;;;;;;;;;;5018790;28;20092;-82
2023/01/19 00:04:29;;;;;;;18.98;7.00;;;;;;;;;;5002503;28;20289;-80
2023/01/19 00:06:55;;;;;;;17.10;5.80;;;;;;;;;;5012415;28;20065;-81
2023/01/19 00:09:22;;;;;;;16.55;6.63;;;;;;;;;;4992530;28;20529;-81
2023/01/19 00:11:48;;;;;;;17.70;7.18;;;;;;;;;;5022732;28;20037;-81
2023/01/19 00:14:15;;;;;;;24.80;8.50;;;;;;;;;;5026146;28;20163;-82
2023/01/19 00:16:41;;;;;;;22.58;7.97;;;;;;;;;;5030562;28;20067;-82
2023/01/19 00:19:07;;;;;;;24.48;8.65;;;;;;;;;;5031261;28;20053;-82
2023/01/19 00:21:34;;;;;;;20.95;7.88;;;;;;;;;;5032699;28;20163;-81
2023/01/19 00:24:00;;;;;;;18.75;7.53;;;;;;;;;;5034478;28;20045;-81
2023/01/19 00:26:27;;;;;;;20.88;7.57;;;;;;;;;;5035600;28;20105;-81
2023/01/19 00:28:53;;;;;;;20.77;7.70;;;;;;;;;;5034796;28;20521;-81
2023/01/19 00:31:20;;;;;;;20.60;7.53;;;;;;;;;;5033483;28;20069;-82
2023/01/19 00:33:48;;;;;;;16.13;6.78;;;;;;;;;;5033239;28;20439;-81
2023/01/19 00:36:15;;;;;;;21.40;6.88;;;;;;;;;;5034413;28;20084;-82
2023/01/19 00:38:41;;;;;;;13.95;5.97;;;;;;;;;;5034184;28;20495;-81
2023/01/19 00:41:08;;;;;;;18.10;6.68;;;;;;;;;;5034995;28;20049;-81
2023/01/19 00:43:34;;;;;;;16.65;6.95;;;;;;;;;;5034517;28;20117;-81
2023/01/19 00:46:01;;;;;;;28.23;8.75;;;;;;;;;;5018563;28;20072;-82
2023/01/19 00:48:28;;;;;;;20.83;7.55;;;;;;;;;;5035391;28;20132;-81
2023/01/19 00:50:54;;;;;;;15.90;5.97;;;;;;;;;;5035654;28;20049;-81
2023/01/19 00:53:21;;;;;;;20.63;7.18;;;;;;;;;;5036061;28;20076;-82
2023/01/19 00:55:47;;;;;;;17.80;7.22;;;;;;;;;;5035169;28;20084;-81
2023/01/19 00:58:14;;;;;;;25.33;7.70;;;;;;;;;;5017282;28;20508;-81
2023/01/19 01:00:40;;;;;;;19.55;7.95;;;;;;;;;;5035486;28;20133;-81
2023/01/19 01:03:07;;;;;;;20.40;8.13;;;;;;;;;;5034871;28;20050;-80
2023/01/19 01:05:33;;;;;;;14.73;7.20;;;;;;;;;;5034654;28;20060;-80
2023/01/19 01:08:00;;;;;;;22.80;7.85;;;;;;;;;;5017721;28;20053;-80
2023/01/19 01:10:27;;;;;;;20.85;8.02;;;;;;;;;;5042189;28;20065;-80
2023/01/19 01:12:54;;;;;;;22.67;7.97;;;;;;;;;;5041457;28;20136;-79
2023/01/19 01:15:25;;;;;;;21.75;7.38;;;;;;;;;;5035968;28;20063;-79
2023/01/19 01:17:51;;;;;;;16.25;7.25;;;;;;;;;;5034566;28;20104;-79
2023/01/19 01:20:19;;;;;;;18.52;7.55;;;;;;;;;;5035469;28;20496;-80
2023/01/19 01:22:47;;;;;;;15.93;6.32;;;;;;;;;;5034938;28;20562;-81
2023/01/19 01:25:14;;;;;;;15.63;6.25;;;;;;;;;;5033634;28;20049;-81
2023/01/19 01:27:41;;;;;;;14.10;5.47;;;;;;;;;;5032111;28;20497;-81
2023/01/19 01:30:08;;;;;;;15.65;5.18;;;;;;;;;;5033226;28;20132;-81
2023/01/19 01:32:35;;;;;;;16.35;5.72;;;;;;;;;;5032887;28;20046;-81
2023/01/19 01:35:01;;;;;;;13.00;5.15;;;;;;;;;;5034758;28;20059;-83
2023/01/19 01:37:28;;;;;;;12.77;4.88;;;;;;;;;;5034234;28;20136;-81
2023/01/19 01:39:54;;;;;;;11.93;5.20;;;;;;;;;;5033845;28;20160;-79
2023/01/19 01:42:25;;;;;;;12.40;5.20;;;;;;;;;;5034432;28;20473;-81
2023/01/19 01:44:53;;;;;;;10.82;5.28;;;;;;;;;;5034226;28;20049;-81
2023/01/19 01:47:25;;;;;;;12.50;5.55;;;;;;;;;;5034028;28;20053;-81
2023/01/19 01:49:56;;;;;;;14.48;5.30;;;;;;;;;;5033465;28;20136;-80
2023/01/19 01:52:24;;;;;;;15.35;5.70;;;;;;;;;;5033211;28;20042;-79
2023/01/19 01:54:51;;;;;;;15.80;6.15;;;;;;;;;;5032552;28;20053;-81
2023/01/19 01:57:18;;;;;;;16.38;5.82;;;;;;;;;;5033505;28;20528;-78
2023/01/19 01:59:46;;;;;;;16.65;5.95;;;;;;;;;;5034330;28;20414;-81
2023/01/19 02:05:08;;;;;;;13.75;5.93;;;;;;;;;;5032614;28;20115;-81
2023/01/19 02:13:20;;;;;;;16.70;5.35;;;;;;;;;;5038776;28;20065;-81
2023/01/19 02:15:51;;;;;;;13.00;4.85;;;;;;;;;;5031932;28;20128;-81
2023/01/19 02:18:22;;;;;;;14.18;4.88;;;;;;;;;;5032935;28;20108;-81
2023/01/19 02:21:10;;;;;;;13.23;4.50;;;;;;;;;;5032223;28;20069;-82
2023/01/19 02:23:39;;;;;;;11.27;4.22;;;;;;;;;;5031596;28;20133;-80
2023/01/19 02:26:08;;;;;;;10.88;4.53;;;;;;;;;;5032129;28;20060;-80
2023/01/19 02:28:36;;;;;;;10.88;4.50;;;;;;;;;;5032202;28;20127;-82
2023/01/19 02:31:02;;;;;;;12.27;4.90;;;;;;;;;;5031069;28;20046;-81
2023/01/19 02:33:29;;;;;;;13.57;5.40;;;;;;;;;;5014541;28;20512;-79
2023/01/19 02:35:55;;;;;;;13.43;4.38;;;;;;;;;;5032567;28;20060;-81
2023/01/19 02:38:23;;;;;;;17.02;5.53;;;;;;;;;;5031503;28;20049;-80
2023/01/19 02:40:50;;;;;;;13.00;5.40;;;;;;;;;;5033370;28;20060;-81
2023/01/19 02:43:18;;;;;;;16.60;5.75;;;;;;;;;;5015145;28;20577;-80
2023/01/19 02:45:45;;;;;;;11.07;5.13;;;;;;;;;;5030444;28;20050;-81
2023/01/19 02:48:12;;;;;;;10.25;5.15;;;;;;;;;;5039432;28;20073;-80
2023/01/19 02:50:44;;;;;;;12.18;5.05;;;;;;;;;;5048496;28;20068;-82
2023/01/19 02:53:17;;;;;;;15.05;5.30;;;;;;;;;;5033272;28;20041;-81
2023/01/19 02:55:47;;;;;;;12.15;4.75;;;;;;;;;;5040254;28;20077;-81
2023/01/19 02:58:22;;;;;;;12.40;4.95;;;;;;;;;;5033197;28;20056;-78
2023/01/19 03:01:00;;;;;;;14.63;5.28;;;;;;;;;;5031601;28;20064;-81
2023/01/19 03:03:45;;;;;;;11.15;4.93;;;;;;;;;;5033009;28;20045;-81
2023/01/19 03:06:33;;;;;;;18.40;5.45;;;;;;;;;;5031386;28;20046;-80
2023/01/19 03:09:08;;;;;;;13.52;4.68;;;;;;;;;;5031119;28;20045;-80
2023/01/19 03:11:42;;;;;;;17.13;5.13;;;;;;;;;;5031313;28;20409;-80
2023/01/19 03:14:10;;;;;;;14.75;4.97;;;;;;;;;;5031800;28;20512;-79
2023/01/19 03:16:37;;;;;;;11.50;4.53;;;;;;;;;;5030664;28;20065;-79
2023/01/19 03:19:06;;;;;;;12.63;5.50;;;;;;;;;;5032441;28;20140;-83
2023/01/19 03:21:34;;;;;;;12.88;5.10;;;;;;;;;;5030777;28;20076;-81
2023/01/19 03:24:02;;;;;;;13.48;5.43;;;;;;;;;;5031600;28;20532;-81
2023/01/19 03:26:30;;;;;;;14.65;4.88;;;;;;;;;;5038125;28;20103;-79
2023/01/19 03:28:58;;;;;;;17.08;5.72;;;;;;;;;;5041855;28;20050;-79
2023/01/19 03:31:26;;;;;;;17.17;5.07;;;;;;;;;;5033276;28;20049;-80
2023/01/19 03:33:54;;;;;;;12.13;5.15;;;;;;;;;;5032983;28;20060;-79
2023/01/19 03:36:31;;;;;;;15.27;6.13;;;;;;;;;;5031395;28;20513;-81
2023/01/19 03:38:59;;;;;;;16.02;5.68;;;;;;;;;;5031825;28;20053;-80
2023/01/19 03:41:26;;;;;;;15.55;5.22;;;;;;;;;;5032511;28;20054;-81
2023/01/19 03:43:54;;;;;;;14.55;5.75;;;;;;;;;;5031910;28;20081;-81
2023/01/19 03:46:21;;;;;;;16.08;6.13;;;;;;;;;;5031268;28;20084;-81
2023/01/19 03:48:48;;;;;;;13.15;5.72;;;;;;;;;;5032822;28;20046;-80
2023/01/19 03:51:15;;;;;;;14.23;6.00;;;;;;;;;;5032929;28;20087;-82
2023/01/19 03:53:42;;;;;;;20.35;5.43;;;;;;;;;;5032423;28;20061;-80
2023/01/19 03:56:15;;;;;;;15.60;6.10;;;;;;;;;;5033502;28;20050;-81
2023/01/19 03:58:42;;;;;;;14.55;5.35;;;;;;;;;;5037638;28;20063;-81
2023/01/19 04:01:08;;;;;;;16.52;5.63;;;;;;;;;;5036602;28;20140;-82
2023/01/19 04:03:35;;;;;;;16.67;5.38;;;;;;;;;;5036921;28;20042;-81
2023/01/19 04:06:01;;;;;;;12.45;5.70;;;;;;;;;;5035739;28;20355;-80
2023/01/19 04:08:28;;;;;;;14.23;5.90;;;;;;;;;;5031464;28;20042;-80
2023/01/19 04:10:56;;;;;;;15.88;5.78;;;;;;;;;;5014738;28;20050;-80
2023/01/19 04:13:22;;;;;;;13.70;5.45;;;;;;;;;;5034548;28;20055;-80
2023/01/19 04:15:49;;;;;;;12.35;5.75;;;;;;;;;;5007677;28;20056;-81
2023/01/19 04:18:15;;;;;;;14.45;5.70;;;;;;;;;;5036138;28;20057;-80
2023/01/19 04:20:42;;;;;;;15.52;5.40;;;;;;;;;;5035705;28;20061;-81
2023/01/19 04:23:08;;;;;;;12.70;5.07;;;;;;;;;;5033296;28;20325;-80
2023/01/19 04:25:34;;;;;;;13.98;5.60;;;;;;;;;;5029448;28;20456;-81
2023/01/19 04:28:04;;;;;;;13.63;5.05;;;;;;;;;;5027441;28;20062;-80
2023/01/19 04:30:30;;;;;;;15.35;5.55;;;;;;;;;;5021471;28;20301;-79
2023/01/19 04:32:57;;;;;;;16.17;5.90;;;;;;;;;;5022532;28;20116;-79
2023/01/19 04:35:24;;;;;;;13.85;5.97;;;;;;;;;;5026295;28;20054;-79
2023/01/19 04:37:51;;;;;;;15.88;5.50;;;;;;;;;;5028379;28;20050;-81
2023/01/19 04:40:17;;;;;;;15.88;6.35;;;;;;;;;;5042208;28;20072;-80
2023/01/19 04:42:44;;;;;;;12.30;5.28;;;;;;;;;;5044364;28;20083;-80
2023/01/19 04:45:11;;;;;;;15.40;6.07;;;;;;;;;;5042409;28;20049;-79
2023/01/19 04:47:38;;;;;;;15.10;5.85;;;;;;;;;;5030455;28;20149;-80
2023/01/19 04:50:05;;;;;;;18.08;6.25;;;;;;;;;;5029162;28;20084;-81
2023/01/19 04:52:35;;;;;;;15.95;5.90;;;;;;;;;;5006345;28;20042;-79
2023/01/19 04:55:02;;;;;;;15.95;5.65;;;;;;;;;;5023441;28;20084;-80
2023/01/19 04:57:29;;;;;;;15.00;5.75;;;;;;;;;;5017792;28;20337;-80
2023/01/19 04:59:58;;;;;;;15.27;5.18;;;;;;;;;;5024286;28;20169;-80
2023/01/19 05:02:25;;;;;;;20.42;6.07;;;;;;;;;;5003808;28;20048;-80
2023/01/19 05:04:51;;;;;;;19.35;5.65;;;;;;;;;;5034988;28;20052;-81
2023/01/19 05:07:18;;;;;;;12.57;5.88;;;;;;;;;;5034287;28;20046;-78
2023/01/19 05:09:44;;;;;;;13.30;5.63;;;;;;;;;;5016515;28;20049;-80
2023/01/19 05:12:11;;;;;;;14.05;5.38;;;;;;;;;;5018304;28;20049;-80
2023/01/19 05:14:37;;;;;;;13.73;5.55;;;;;;;;;;5035510;28;20115;-80
2023/01/19 05:17:04;;;;;;;14.98;5.43;;;;;;;;;;5033445;28;20050;-80
2023/01/19 05:19:30;;;;;;;12.30;5.40;;;;;;;;;;5033907;28;20053;-82
2023/01/19 05:21:56;;;;;;;17.65;5.35;;;;;;;;;;5030506;28;20128;-79
2023/01/19 05:24:23;;;;;;;13.32;5.82;;;;;;;;;;5031820;28;20041;-77
2023/01/19 05:26:49;;;;;;;17.88;6.13;;;;;;;;;;5032998;28;20450;-82
2023/01/19 05:29:16;;;;;;;13.32;5.95;;;;;;;;;;5028179;28;20132;-81
2023/01/19 05:31:45;;;;;;;17.58;5.72;;;;;;;;;;5035944;28;20060;-81
2023/01/19 05:34:13;;;;;;;15.63;5.53;;;;;;;;;;5038023;28;20057;-81
2023/01/19 05:36:39;;;;;;;14.45;6.05;;;;;;;;;;5034249;28;20050;-81
2023/01/19 05:39:06;;;;;;;14.75;5.88;;;;;;;;;;5034479;28;20433;-81
2023/01/19 05:41:33;;;;;;;13.07;5.45;;;;;;;;;;5035382;28;20132;-82
2023/01/19 05:43:59;;;;;;;14.98;5.28;;;;;;;;;;5035504;28;20049;-82
2023/01/19 05:46:25;;;;;;;21.30;5.95;;;;;;;;;;5034541;28;20080;-81
2023/01/19 05:48:52;;;;;;;13.93;5.53;;;;;;;;;;5035039;28;20080;-82
2023/01/19 05:51:18;;;;;;;19.83;5.55;;;;;;;;;;5017691;28;20067;-81
2023/01/19 05:53:45;;;;;;;15.20;5.90;;;;;;;;;;5036998;28;20279;-82
2023/01/19 05:56:11;;;;;;;15.00;5.75;;;;;;;;;;5037257;28;20132;-81
2023/01/19 05:58:38;;;;;;;11.00;5.28;;;;;;;;;;5019146;28;20045;-81
2023/01/19 06:01:05;;;;;;;14.50;5.65;;;;;;;;;;5033878;28;20049;-82
2023/01/19 06:03:33;;;;;;;13.88;5.28;;;;;;;;;;5020962;28;20077;-81
2023/01/19 06:06:00;;;;;;;14.43;5.80;;;;;;;;;;5013498;28;20141;-82
2023/01/19 06:08:26;;;;;;;18.27;6.13;;;;;;;;;;5026552;28;20046;-81
2023/01/19 06:10:53;;;;;;;20.27;6.93;;;;;;;;;;5015381;28;20056;-81
2023/01/19 06:13:20;;;;;;;17.65;6.03;;;;;;;;;;5019111;28;20126;-81
2023/01/19 06:15:46;;;;;;;14.40;6.03;;;;;;;;;;5032012;28;20120;-81
2023/01/19 06:18:15;;;;;;;14.43;5.80;;;;;;;;;;5033372;28;20049;-82
2023/01/19 06:20:42;;;;;;;16.40;5.25;;;;;;;;;;5033405;28;20049;-82
2023/01/19 06:23:09;;;;;;;15.18;5.93;;;;;;;;;;5032989;28;20064;-80
2023/01/19 06:25:36;;;;;;;16.50;6.10;;;;;;;;;;5033897;28;20060;-81
2023/01/19 06:28:04;;;;;;;17.75;6.35;;;;;;;;;;5033593;28;20087;-80
2023/01/19 06:30:30;;;;;;;15.85;6.75;;;;;;;;;;5032281;28;20053;-81
2023/01/19 06:32:57;;;;;;;13.65;6.15;;;;;;;;;;5032977;28;20061;-81
2023/01/19 06:35:23;;;;;;;16.08;6.40;;;;;;;;;;5033532;28;20156;-81
2023/01/19 06:37:52;;;;;;;19.63;7.15;;;;;;;;;;5030788;28;20049;-81
2023/01/19 06:40:18;;;;;;;18.13;6.20;;;;;;;;;;5036208;28;20058;-83
2023/01/19 06:42:44;;;;;;;14.75;5.97;;;;;;;;;;5032327;28;20049;-81
2023/01/19 06:45:11;;;;;;;13.07;6.03;;;;;;;;;;5031416;28;20505;-81
2023/01/19 06:47:37;;;;;;;12.50;6.07;;;;;;;;;;5031801;28;20045;-81
2023/01/19 06:50:04;;;;;;;14.02;6.13;;;;;;;;;;5032275;28;20445;-81
2023/01/19 06:52:30;;;;;;;16.50;6.18;;;;;;;;;;5030739;28;20045;-80
2023/01/19 06:54:57;;;;;;;17.73;6.07;;;;;;;;;;5032001;28;20053;-82
2023/01/19 06:57:24;;;;;;;15.48;5.57;;;;;;;;;;5030283;28;20099;-80
2023/01/19 06:59:51;;;;;;;18.63;5.53;;;;;;;;;;5032464;28;20124;-80
2023/01/19 07:02:21;;;;;;;11.55;5.25;;;;;;;;;;5031206;28;20052;-78
2023/01/19 07:04:53;;;;;;;13.05;5.53;;;;;;;;;;5031800;28;20057;-80
2023/01/19 07:07:20;;;;;;;14.48;5.80;;;;;;;;;;5031572;28;20103;-81
2023/01/19 07:09:46;;;;;;;13.25;5.57;;;;;;;;;;5027677;28;20525;-81
2023/01/19 07:12:13;;;;;;;13.77;5.25;;;;;;;;;;5036038;28;20132;-81
2023/01/19 07:14:39;;;;;;;14.88;5.22;;;;;;;;;;5036384;28;20045;-81
2023/01/19 07:17:06;;;;;;;10.63;5.15;;;;;;;;;;5034221;28;20337;-82
2023/01/19 07:19:34;;;;;;;14.98;5.72;;;;;;;;;;5035475;28;20084;-81
2023/01/19 07:22:01;;;;;;;12.48;5.60;;;;;;;;;;5036460;28;20053;-80
2023/01/19 07:24:29;;;;;;;15.35;5.32;;;;;;;;;;5033218;28;20128;-82
2023/01/19 07:26:55;;;;;;;15.55;5.40;;;;;;;;;;5033205;28;20041;-80
2023/01/19 07:29:22;;;;;;;13.88;5.43;;;;;;;;;;5036096;28;20080;-82
2023/01/19 07:31:48;;;;;;;13.73;5.28;;;;;;;;;;5037117;28;20045;-83
2023/01/19 07:34:15;;;;;;;11.90;4.75;;;;;;;;;;5035062;28;20053;-81
2023/01/19 07:36:42;;;;;;;14.55;5.38;;;;;;;;;;5034436;28;20132;-79
2023/01/19 07:39:09;;;;;;;12.70;5.05;;;;;;;;;;5029043;28;20049;-80
2023/01/19 07:41:35;;;;;;;16.17;5.28;;;;;;;;;;5030438;28;20157;-81
2023/01/19 07:44:02;;;;;;;13.63;5.22;;;;;;;;;;5030779;28;20355;-81
2023/01/19 07:46:28;;;;;;;13.93;5.53;;;;;;;;;;5029075;28;20469;-81
2023/01/19 07:48:55;;;;;;;15.15;5.57;;;;;;;;;;5030130;28;20050;-81
2023/01/19 07:51:23;;;;;;;14.43;6.40;;;;;;;;;;5030198;28;20049;-81
2023/01/19 07:53:49;;;;;;;14.15;5.95;;;;;;;;;;5029407;28;20053;-80
2023/01/19 07:56:16;;;;;;;14.30;5.28;;;;;;;;;;5030069;28;20053;-79
2023/01/19 07:58:42;;;;;;;16.63;5.47;;;;;;;;;;5029649;28;20398;-81
2023/01/19 08:01:10;;;;;;;14.30;5.57;;;;;;;;;;5011457;28;20562;-81
2023/01/19 08:03:37;;;;;;;15.75;5.35;;;;;;;;;;5007458;28;20054;-81
2023/01/19 08:06:04;;;;;;;14.40;5.32;;;;;;;;;;5017990;28;20050;-83
2023/01/19 08:08:31;;;;;;;15.00;5.93;;;;;;;;;;5030162;28;20045;-81
2023/01/19 08:10:58;;;;;;;18.10;6.30;;;;;;;;;;5029021;28;20045;-82
2023/01/19 08:13:24;;;;;;;15.45;6.40;;;;;;;;;;5030183;28;20052;-80
2023/01/19 08:15:52;;;;;;;14.77;6.85;;;;;;;;;;5016747;28;20053;-81
2023/01/19 08:18:19;;;;;;;17.42;6.38;;;;;;;;;;5029868;28;20571;-80
2023/01/19 08:20:45;;;;;;;15.27;6.05;;;;;;;;;;5030265;28;20049;-80
2023/01/19 08:23:12;;;;;;;14.30;6.43;;;;;;;;;;5027892;28;20489;-80
2023/01/19 08:25:41;;;;;;;15.88;6.63;;;;;;;;;;5029309;28;20425;-80
2023/01/19 08:28:08;;;;;;;15.23;6.53;;;;;;;;;;5030083;28;20053;-81
2023/01/19 08:30:34;;;;;;;15.85;6.53;;;;;;;;;;5030991;28;20132;-81
2023/01/19 08:33:06;;;;;;;14.65;6.38;;;;;;;;;;5030699;28;20046;-81
2023/01/19 08:35:36;;;;;;;12.63;5.60;;;;;;;;;;5033966;28;20499;-82
2023/01/19 08:38:06;;;;;;;14.65;5.93;;;;;;;;;;5028695;28;20057;-81
2023/01/19 08:40:34;;;;;;;12.75;5.32;;;;;;;;;;5029897;28;20049;-80
2023/01/19 08:43:06;;;;;;;14.38;5.50;;;;;;;;;;5032469;28;20479;-81
2023/01/19 08:45:34;;;;;;;14.80;5.88;;;;;;;;;;5032850;28;20045;-82
2023/01/19 08:48:00;;;;;;;12.93;5.40;;;;;;;;;;5032835;28;20049;-80
2023/01/19 08:50:28;;;;;;;11.48;5.50;;;;;;;;;;5032606;28;20076;-80
2023/01/19 08:52:58;;;;;;;10.88;5.22;;;;;;;;;;5033466;28;20049;-81
2023/01/19 08:55:28;;;;;;;12.07;5.10;;;;;;;;;;5033579;28;20050;-81
2023/01/19 08:57:56;;;;;;;14.63;4.95;;;;;;;;;;5032849;28;20053;-81
2023/01/19 09:00:26;;;;;;;10.65;4.70;;;;;;;;;;5032792;28;20149;-81
2023/01/19 09:02:53;;;;;;;11.65;4.70;;;;;;;;;;5032658;28;20053;-81
2023/01/19 09:05:19;;;;;;;10.20;5.00;;;;;;;;;;5032870;28;20103;-79
2023/01/19 09:07:47;;;;;;;10.80;4.78;;;;;;;;;;5032924;28;20517;-80
2023/01/19 09:10:14;;;;;;;9.25;4.70;;;;;;;;;;5032794;28;20056;-81
2023/01/19 09:12:40;;;;;;;11.52;4.55;;;;;;;;;;5032869;28;20048;-81
2023/01/19 09:15:09;;;;;;;10.63;4.38;;;;;;;;;;5029038;28;20085;-80
2023/01/19 09:17:36;;;;;;;11.68;4.68;;;;;;;;;;5031884;28;20053;-81
2023/01/19 09:20:03;;;;;;;10.85;4.15;;;;;;;;;;5032840;28;20049;-80
2023/01/19 09:22:29;;;;;;;12.93;4.78;;;;;;;;;;5033559;28;20045;-82
2023/01/19 09:24:56;;;;;;;10.75;5.05;;;;;;;;;;5032659;28;20395;-79
2023/01/19 09:27:23;;;;;;;10.73;4.45;;;;;;;;;;5032164;28;20119;-80
2023/01/19 09:29:52;;;;;;;12.60;4.53;;;;;;;;;;5032900;28;20128;-82
2023/01/19 09:32:19;;;;;;;11.35;4.65;;;;;;;;;;5031808;28;20045;-80
2023/01/19 09:34:46;;;;;;;11.85;4.18;;;;;;;;;;5037117;28;20042;-81
2023/01/19 09:37:14;;;;;;;12.63;4.65;;;;;;;;;;5032630;28;20486;-81
2023/01/19 09:39:41;;;;;;;10.35;4.80;;;;;;;;;;5029863;28;20132;-81
2023/01/19 09:42:14;;;;;;;11.13;4.60;;;;;;;;;;5033283;28;20099;-81
2023/01/19 09:44:41;;;;;;;10.20;5.15;;;;;;;;;;5032124;28;20052;-82
2023/01/19 09:47:15;;;;;;;12.48;5.03;;;;;;;;;;5031887;28;20064;-82
2023/01/19 09:49:47;;;;;;;12.45;5.18;;;;;;;;;;5032573;28;20045;-83
2023/01/19 09:52:14;;;;;;;12.48;5.63;;;;;;;;;;5033181;28;20185;-84
2023/01/19 09:54:43;;;;;;;11.70;5.07;;;;;;;;;;5007297;28;20042;-82
2023/01/19 09:57:13;;;;;;;11.70;6.20;;;;;;;;;;5020103;28;20053;-81
2023/01/19 09:59:47;;;;;;;13.75;5.03;;;;;;;;;;5032648;28;20061;-81
2023/01/19 10:05:59;;;;;;;14.57;5.30;;;;;;;;;;5018704;28;20498;-83
2023/01/19 10:08:50;;;;;;;11.85;4.70;;;;;;;;;;5033809;28;20057;-82
2023/01/19 10:11:25;;;;;;;10.10;4.28;;;;;;;;;;5016800;28;20478;-83
2023/01/19 10:14:15;;;;;;;10.05;4.97;;;;;;;;;;5024115;28;20494;-83
2023/01/19 10:16:52;;;;;;;12.23;5.05;;;;;;;;;;5035768;28;20053;-81
2023/01/19 10:19:29;;;;;;;9.13;4.97;;;;;;;;;;5036144;28;20103;-81
2023/01/19 10:21:57;;;;;;;10.82;4.93;;;;;;;;;;5039089;28;20116;-81
2023/01/19 10:24:28;;;;;;;12.05;4.93;;;;;;;;;;5037105;28;20056;-82
2023/01/19 10:26:55;;;;;;;9.88;4.95;;;;;;;;;;5038708;28;20149;-81
2023/01/19 10:29:37;;;;;;;8.55;5.05;;;;;;;;;;5038647;28;20132;-82
2023/01/19 10:32:08;;;;;;;10.18;4.68;;;;;;;;;;5031306;28;20085;-83
2023/01/19 10:34:35;;;;;;;11.95;5.35;;;;;;;;;;5033482;28;20053;-82
2023/01/19 10:37:04;;;;;;;8.43;5.13;;;;;;;;;;5033827;28;20054;-82
2023/01/19 10:39:30;;;;;;;9.23;4.93;;;;;;;;;;5032236;28;20084;-82
2023/01/19 10:42:02;;;;;;;9.52;4.80;;;;;;;;;;5033615;28;20053;-81
2023/01/19 10:44:33;;;;;;;12.73;5.50;;;;;;;;;;5033044;28;20409;-80
2023/01/19 10:47:01;;;;;;;11.43;5.07;;;;;;;;;;5030092;28;20042;-80
2023/01/19 10:49:30;;;;;;;8.82;4.82;;;;;;;;;;5032460;28;20081;-81
2023/01/19 10:51:57;;;;;;;9.95;5.47;;;;;;;;;;5032307;28;20497;-80
2023/01/19 10:54:25;;;;;;;10.48;5.25;;;;;;;;;;5027730;28;20046;-80
2023/01/19 10:56:56;;;;;;;10.25;4.88;;;;;;;;;;5029526;28;20191;-82
2023/01/19 10:59:34;;;;;;;11.30;5.50;;;;;;;;;;5032218;28;20049;-80
2023/01/19 11:02:16;;;;;;;10.90;5.32;;;;;;;;;;5031431;28;20060;-82
2023/01/19 11:04:44;;;;;;;9.93;4.97;;;;;;;;;;5031794;28;20084;-80
2023/01/19 11:07:22;;;;;;;11.82;5.75;;;;;;;;;;5031285;28;20050;-81
2023/01/19 11:09:49;;;;;;;11.18;5.15;;;;;;;;;;5030814;28;20132;-82
2023/01/19 11:12:17;;;;;;;11.27;6.00;;;;;;;;;;5031569;28;20050;-79
2023/01/19 11:14:44;;;;;;;12.18;5.70;;;;;;;;;;5025315;28;20165;-85
2023/01/19 11:17:21;;;;;;;11.20;5.18;;;;;;;;;;5031456;28;20053;-81
2023/01/19 11:19:51;;;;;;;12.10;5.72;;;;;;;;;;5031000;28;20581;-80
2023/01/19 11:22:25;;;;;;;11.25;5.25;;;;;;;;;;5023063;28;20045;-81
2023/01/19 11:24:51;;;;;;;11.63;5.20;;;;;;;;;;5032214;28;20489;-80
2023/01/19 11:27:19;;;;;;;13.52;5.35;;;;;;;;;;5031091;28;20042;-79
2023/01/19 11:29:52;;;;;;;10.70;5.40;;;;;;;;;;5031987;28;20045;-81
2023/01/19 11:32:21;;;;;;;12.07;5.57;;;;;;;;;;5030899;28;20133;-80
2023/01/19 11:34:47;;;;;;;11.38;5.32;;;;;;;;;;5032917;28;20545;-81
2023/01/19 11:37:17;;;;;;;12.85;5.60;;;;;;;;;;5030179;28;20053;-81
2023/01/19 11:39:51;;;;;;;14.40;6.03;;;;;;;;;;5031126;28;20132;-83
2023/01/19 11:42:18;;;;;;;15.57;5.90;;;;;;;;;;5031158;28;20064;-80
2023/01/19 11:44:53;;;;;;;13.50;5.53;;;;;;;;;;5031399;28;20088;-83
2023/01/19 11:47:40;;;;;;;12.27;5.57;;;;;;;;;;5030266;28;20128;-80
2023/01/19 11:50:12;;;;;;;13.55;5.00;;;;;;;;;;5027057;28;20081;-81
2023/01/19 11:52:48;;;;;;;13.15;5.82;;;;;;;;;;5033117;28;20056;-81
2023/01/19 11:55:16;;;;;;;;;;;;;;;;;;5032880;28;20049;-83
2023/01/19 11:57:47;;;;;;;13.40;6.10;;;;;;;;;;5032542;28;19921;-82
2023/01/19 12:00:34;;;;;;;15.07;5.90;;;;;;;;;;5032437;28;20497;-81
2023/01/19 12:03:08;;;;;;;13.90;5.70;;;;;;;;;;5032382;28;20108;-83
2023/01/19 12:05:36;;;;;;;13.10;6.10;;;;;;;;;;5034110;28;20046;-83
2023/01/19 12:08:04;;;;;;;18.17;6.70;;;;;;;;;;5035983;28;20087;-82
2023/01/19 12:10:35;;;;;;;12.18;5.63;;;;;;;;;;5032719;28;20107;-83
2023/01/19 12:13:02;;;;;;;12.00;6.18;;;;;;;;;;5031901;28;20092;-82
2023/01/19 12:15:35;;;;;;;11.93;6.20;;;;;;;;;;5032719;28;20080;-81
2023/01/19 12:18:03;;;;;;;12.60;6.78;;;;;;;;;;5035211;28;20041;-81
2023/01/19 12:20:39;;;;;;;9.90;5.40;;;;;;;;;;5038465;28;20403;-82
2023/01/19 12:23:05;;;;;;;;;;;;;;;;;;5037599;28;20549;-81
2023/01/19 12:25:37;;;;;;;12.60;6.55;;;;;;;;;;5038395;28;20008;-82
2023/01/19 12:28:08;;;;;;;14.32;6.50;;;;;;;;;;5037539;28;20121;-82
2023/01/19 12:30:35;;;;;;;13.05;6.40;;;;;;;;;;5036666;28;20132;-81
2023/01/19 12:33:20;;;;;;;12.43;5.95;;;;;;;;;;5036747;28;20103;-80
2023/01/19 12:35:52;;;;;;;13.63;6.80;;;;;;;;;;5034237;28;20108;-81
2023/01/19 12:38:42;;;;;;;13.77;6.32;;;;;;;;;;5035393;28;20416;-81
2023/01/19 12:41:17;;;;;;;17.90;6.85;;;;;;;;;;5033079;28;20254;-83
2023/01/19 12:43:44;;;;;;;12.68;6.10;;;;;;;;;;5036445;28;20049;-82
2023/01/19 12:46:22;;;;;;;12.60;6.13;;;;;;;;;;5034739;28;20071;-81
2023/01/19 12:48:49;;;;;;;13.45;5.80;;;;;;;;;;5035116;28;20045;-82
2023/01/19 12:51:22;;;;;;;11.25;5.85;;;;;;;;;;5036053;28;20096;-81
2023/01/19 12:53:56;;;;;;;11.35;6.30;;;;;;;;;;5035612;28;20045;-81
2023/01/19 12:56:30;;;;;;;14.02;6.28;;;;;;;;;;5035914;28;20404;-81
2023/01/19 12:58:56;;;;;;;13.02;6.65;;;;;;;;;;5037443;28;20053;-83
2023/01/19 13:01:23;;;;;;;12.50;6.80;;;;;;;;;;5043481;28;20109;-83
2023/01/19 13:04:08;;;;;;;19.45;7.60;;;;;;;;;;5046934;28;20049;-82
2023/01/19 13:06:46;;;;;;;16.00;7.72;;;;;;;;;;5043396;28;20046;-83
2023/01/19 13:09:29;;;;;;;17.08;6.82;;;;;;;;;;5042162;28;20049;-82
2023/01/19 13:12:14;;;;;;;15.27;7.47;;;;;;;;;;5036409;28;20050;-81
2023/01/19 13:14:41;;;;;;;12.30;6.40;;;;;;;;;;5028555;28;20052;-81
2023/01/19 13:17:30;;;;;;;13.20;5.95;;;;;;;;;;5035108;28;20064;-84
2023/01/19 13:20:17;;;;;;;16.70;6.60;;;;;;;;;;5033099;28;20121;-82
2023/01/19 13:22:48;;;;;;;13.50;6.28;;;;;;;;;;5035959;28;20195;-83
2023/01/19 13:25:26;;;;;;;13.85;5.82;;;;;;;;;;5035149;28;20049;-82
2023/01/19 13:27:53;;;;;;;13.27;6.25;;;;;;;;;;5034697;28;20052;-82
2023/01/19 13:30:20;;;;;;;10.70;5.35;;;;;;;;;;5035784;28;20181;-81
2023/01/19 13:32:47;;;;;;;12.00;5.25;;;;;;;;;;5035124;28;20096;-80
2023/01/19 13:35:15;;;;;;;11.43;4.68;;;;;;;;;;5036243;28;20476;-81
2023/01/19 13:37:43;;;;;;;10.27;5.18;;;;;;;;;;5035472;28;20088;-83
2023/01/19 13:40:24;;;;;;;11.23;5.40;;;;;;;;;;5036034;28;20144;-82
2023/01/19 13:42:51;;;;;;;13.70;5.88;;;;;;;;;;5035107;28;20079;-82
2023/01/19 13:45:24;;;;;;;15.25;5.95;;;;;;;;;;5034981;28;20046;-81
2023/01/19 13:47:51;;;;;;;13.77;5.53;;;;;;;;;;5035011;28;20080;-81
2023/01/19 13:50:22;;;;;;;11.68;5.32;;;;;;;;;;5036268;28;20248;-81
2023/01/19 13:52:50;;;;;;;11.65;5.07;;;;;;;;;;5035336;28;20136;-81
2023/01/19 13:55:17;;;;;;;16.30;5.53;;;;;;;;;;5037488;28;20060;-81
2023/01/19 13:57:44;;;;;;;12.45;5.63;;;;;;;;;;5021882;28;20121;-82
2023/01/19 14:00:11;;;;;;;10.68;5.28;;;;;;;;;;5035979;28;20057;-82
2023/01/19 14:02:38;;;;;;;13.07;5.53;;;;;;;;;;5035102;28;20053;-82
2023/01/19 14:05:18;;;;;;;11.63;5.53;;;;;;;;;;5035019;28;20057;-82
2023/01/19 14:07:45;;;;;;;11.18;5.10;;;;;;;;;;5035615;28;20128;-81
2023/01/19 14:10:13;;;;;;;10.35;5.43;;;;;;;;;;5035821;28;20053;-83
2023/01/19 14:12:40;;;;;;;15.18;5.40;;;;;;;;;;5035610;28;20038;-82
2023/01/19 14:15:24;;;;;;;13.13;5.40;;;;;;;;;;5035056;28;20061;-81
2023/01/19 14:18:08;;;;;;;14.82;5.75;;;;;;;;;;5035515;28;20058;-83
2023/01/19 14:20:38;;;;;;;10.13;4.43;;;;;;;;;;5039380;28;20136;-82
2023/01/19 14:23:05;;;;;;;12.68;5.28;;;;;;;;;;5036127;28;20425;-82
2023/01/19 14:25:32;;;;;;;14.90;5.45;;;;;;;;;;5035905;28;20053;-81
2023/01/19 14:28:20;;;;;;;11.20;5.00;;;;;;;;;;5034813;28;20045;-81
2023/01/19 14:30:58;;;;;;;9.35;4.95;;;;;;;;;;5034617;28;20057;-81
2023/01/19 14:33:35;;;;;;;13.88;5.22;;;;;;;;;;5034375;28;20081;-82
2023/01/19 14:36:09;;;;;;;14.00;5.35;;;;;;;;;;5034492;28;20068;-79
2023/01/19 14:38:38;;;;;;;10.07;5.22;;;;;;;;;;5034133;28;20486;-79
2023/01/19 14:41:05;;;;;;;9.27;4.57;;;;;;;;;;5018476;28;20053;-81
2023/01/19 14:43:31;;;;;;;10.73;4.65;;;;;;;;;;5038979;28;20045;-82
2023/01/19 14:45:58;;;;;;;8.98;3.90;;;;;;;;;;5035913;28;20049;-81
2023/01/19 14:48:28;;;;;;;9.15;4.63;;;;;;;;;;5016119;28;20046;-80
2023/01/19 14:51:02;;;;;;;9.90;4.63;;;;;;;;;;5033093;28;20219;-82
2023/01/19 14:53:35;;;;;;;14.00;4.72;;;;;;;;;;5015069;28;20049;-79
2023/01/19 14:56:06;;;;;;;10.23;4.68;;;;;;;;;;5031825;28;20081;-82